Hugh R. Sharp — WDC9608 — position and weather

sailwx.info

Track history (hours):
 
Tides and Currents Weather Stations Pressure Air Temp Water Temp Dewpoint Dewpoint Depression Visibility Wind Speed Wind Dir Waves Ship Positions

Oceanographic research ship Hugh R. Sharp (USA)

Ship's website: http://www.ceoe.udel.edu/marine/rvSharp.shtml

Detailed information on ship capabilities available from University of Delaware's Ocean Information Center.

Owner: Warrior & yGulf Navigation Compan, Chickasaw, AL. More information available from US FCC via Universal Licensing System and Coast Guard Vessel Documentation Center.

Last reported at 2017-May-25 06:25 UTC. Time now 2017-May-27 17:37 UTC.
Position N 38°47' W 075°10'.

Length 40 m; draft 4 m.

Type: Other ship. MMSI: 367063060.

Date/timePositionNaut miles runAvg speedWind from/ knotsBaromVisibWave heightAir tempDewpointWater temp
2017-May-25 06:25N 38°47' W 075°10'0 0.0
2017-May-24 11:40N 38°47' W 075°10'0 0.0
2017-May-24 11:24N 38°47' W 075°10'1 0.4
2017-May-24 09:47N 38°48' W 075°09'1 5.3
2017-May-24 09:30N 38°48' W 075°07'4 6.2
2017-May-24 08:50N 38°48' W 075°02'7 7.8
2017-May-24 07:56N 38°44' W 074°54'7 9.1
2017-May-24 07:07N 38°41' W 074°46'17 9.7
2017-May-24 05:18N 38°46' W 074°25'3 5.3
2017-May-24 04:47N 38°46' W 074°21'1 3.5
2017-May-24 04:29N 38°46' W 074°20'4 6.8
2017-May-24 03:55N 38°46' W 074°15'18 3.2
2017-May-23 22:15N 38°32' W 074°01'2 6.4
2017-May-23 21:59N 38°31' W 074°01'3 4.2
2017-May-23 21:12N 38°29' W 073°58'5 4.0
2017-May-23 20:01N 38°29' W 073°52'13 5.8
2017-May-23 17:50N 38°40' W 073°46'3 6.3
2017-May-23 17:23N 38°43' W 073°46'3 2.7
2017-May-23 16:25N 38°46' W 073°45'3 6.9
2017-May-23 15:56N 38°44' W 073°42'4 6.7
2017-May-23 15:23N 38°42' W 073°38'3 6.6
2017-May-23 14:54N 38°40' W 073°35'32 5.5
2017-May-23 08:57N 39°07' W 073°12'8 5.2
2017-May-23 07:24N 39°15' W 073°12'4 6.5
2017-May-23 06:44N 39°17' W 073°17'2 6.6
2017-May-23 06:28N 39°17' W 073°19'4 6.5
2017-May-23 05:51N 39°19' W 073°24'48 2.0
2017-May-22 06:29N 39°56' W 072°44'3 6.7
2017-May-22 06:00N 39°55' W 072°40'9 6.6
2017-May-22 04:41N 39°52' W 072°29'1 6.6
2017-May-22 04:30N 39°52' W 072°28'9 5.8
2017-May-22 03:00N 39°44' W 072°31'9 6.5
2017-May-22 01:39N 39°46' W 072°42'1 6.2
2017-May-22 01:28N 39°46' W 072°44'46 6.4
2017-May-21 18:19N 39°54' W 073°42'3 6.7
2017-May-21 17:54N 39°52' W 073°41'8 6.6
2017-May-21 16:39N 39°46' W 073°32'1 6.7
2017-May-21 16:27N 39°46' W 073°31'3 6.6
2017-May-21 15:56N 39°44' W 073°27'4 6.7
2017-May-21 15:24N 39°43' W 073°23'5 6.7
2017-May-21 14:37N 39°41' W 073°16'3 6.7
2017-May-21 14:11N 39°40' W 073°13'24 3.5
2017-May-21 07:22N 39°27' W 072°47'7 6.5
2017-May-21 06:20N 39°29' W 072°55'3 6.5
2017-May-21 05:54N 39°29' W 072°59'6 6.5
2017-May-21 05:02N 39°31' W 073°06'0 6.3
2017-May-21 05:00N 39°31' W 073°06'13 4.4
2017-May-21 02:02N 39°20' W 072°58'0 6.5
2017-May-21 01:58N 39°20' W 072°57'  
2017-May-18 05:20N 38°10' W 074°17'58 3.4
2017-May-17 12:06N 37°16' W 074°47'1 6.2
2017-May-17 12:00N 37°17' W 074°48'3 6.7
2017-May-17 11:30N 37°20' W 074°47'4 6.7
2017-May-17 10:57N 37°24' W 074°46'2 5.3
2017-May-17 10:30N 37°26' W 074°44'3 6.3
2017-May-17 10:00N 37°25' W 074°40'3 5.8
2017-May-17 09:30N 37°24' W 074°37'3 6.6
2017-May-17 09:00N 37°27' W 074°34'3 6.5
2017-May-17 08:29N 37°30' W 074°32'2 4.1
2017-May-17 07:53N 37°32' W 074°31'  
Track history (hours):
 
Tides and Currents Weather Stations Pressure Air Temp Water Temp Dewpoint Dewpoint Depression Visibility Wind Speed Wind Dir Waves Ship Positions

Oceanographic research ship Hugh R. Sharp (USA)

Ship's website: http://www.ceoe.udel.edu/marine/rvSharp.shtml

Detailed information on ship capabilities available from University of Delaware's Ocean Information Center.

Owner: Warrior & yGulf Navigation Compan, Chickasaw, AL. More information available from US FCC via Universal Licensing System and Coast Guard Vessel Documentation Center.

Last reported at 2017-May-25 06:25 UTC. Time now 2017-May-27 17:37 UTC.
Position N 38°47' W 075°10'.

Length 40 m; draft 4 m.

Type: Other ship. MMSI: 367063060.

Date/timePositionNaut miles runAvg speedWind from/ knotsBaromVisibWave heightAir tempDewpointWater temp
2017-May-25 06:25N 38°47' W 075°10'0 0.0
2017-May-24 11:40N 38°47' W 075°10'0 0.0
2017-May-24 11:24N 38°47' W 075°10'1 0.4
2017-May-24 09:47N 38°48' W 075°09'1 5.3
2017-May-24 09:30N 38°48' W 075°07'4 6.2
2017-May-24 08:50N 38°48' W 075°02'7 7.8
2017-May-24 07:56N 38°44' W 074°54'7 9.1
2017-May-24 07:07N 38°41' W 074°46'17 9.7
2017-May-24 05:18N 38°46' W 074°25'3 5.3
2017-May-24 04:47N 38°46' W 074°21'1 3.5
2017-May-24 04:29N 38°46' W 074°20'4 6.8
2017-May-24 03:55N 38°46' W 074°15'18 3.2
2017-May-23 22:15N 38°32' W 074°01'2 6.4
2017-May-23 21:59N 38°31' W 074°01'3 4.2
2017-May-23 21:12N 38°29' W 073°58'5 4.0
2017-May-23 20:01N 38°29' W 073°52'13 5.8
2017-May-23 17:50N 38°40' W 073°46'3 6.3
2017-May-23 17:23N 38°43' W 073°46'3 2.7
2017-May-23 16:25N 38°46' W 073°45'3 6.9
2017-May-23 15:56N 38°44' W 073°42'4 6.7
2017-May-23 15:23N 38°42' W 073°38'3 6.6
2017-May-23 14:54N 38°40' W 073°35'32 5.5
2017-May-23 08:57N 39°07' W 073°12'8 5.2
2017-May-23 07:24N 39°15' W 073°12'4 6.5
2017-May-23 06:44N 39°17' W 073°17'2 6.6
2017-May-23 06:28N 39°17' W 073°19'4 6.5
2017-May-23 05:51N 39°19' W 073°24'48 2.0
2017-May-22 06:29N 39°56' W 072°44'3 6.7
2017-May-22 06:00N 39°55' W 072°40'9 6.6
2017-May-22 04:41N 39°52' W 072°29'1 6.6
2017-May-22 04:30N 39°52' W 072°28'9 5.8
2017-May-22 03:00N 39°44' W 072°31'9 6.5
2017-May-22 01:39N 39°46' W 072°42'1 6.2
2017-May-22 01:28N 39°46' W 072°44'46 6.4
2017-May-21 18:19N 39°54' W 073°42'3 6.7
2017-May-21 17:54N 39°52' W 073°41'8 6.6
2017-May-21 16:39N 39°46' W 073°32'1 6.7
2017-May-21 16:27N 39°46' W 073°31'3 6.6
2017-May-21 15:56N 39°44' W 073°27'4 6.7
2017-May-21 15:24N 39°43' W 073°23'5 6.7
2017-May-21 14:37N 39°41' W 073°16'3 6.7
2017-May-21 14:11N 39°40' W 073°13'24 3.5
2017-May-21 07:22N 39°27' W 072°47'7 6.5
2017-May-21 06:20N 39°29' W 072°55'3 6.5
2017-May-21 05:54N 39°29' W 072°59'6 6.5
2017-May-21 05:02N 39°31' W 073°06'0 6.3
2017-May-21 05:00N 39°31' W 073°06'13 4.4
2017-May-21 02:02N 39°20' W 072°58'0 6.5
2017-May-21 01:58N 39°20' W 072°57'  
2017-May-18 05:20N 38°10' W 074°17'58 3.4
2017-May-17 12:06N 37°16' W 074°47'1 6.2
2017-May-17 12:00N 37°17' W 074°48'3 6.7
2017-May-17 11:30N 37°20' W 074°47'4 6.7
2017-May-17 10:57N 37°24' W 074°46'2 5.3
2017-May-17 10:30N 37°26' W 074°44'3 6.3
2017-May-17 10:00N 37°25' W 074°40'3 5.8
2017-May-17 09:30N 37°24' W 074°37'3 6.6
2017-May-17 09:00N 37°27' W 074°34'3 6.5
2017-May-17 08:29N 37°30' W 074°32'2 4.1
2017-May-17 07:53N 37°32' W 074°31'  

Dump ship's entire track history